createdAt,value
2018-11-05T00:00:37.623Z,10.13
2018-11-05T00:03:05.106Z,9.90
2018-11-05T00:05:32.296Z,9.20
2018-11-05T00:07:59.452Z,10.27
2018-11-05T00:10:26.655Z,9.43
2018-11-05T00:12:53.867Z,9.63
2018-11-05T00:15:23.947Z,9.97
2018-11-05T00:17:51.119Z,9.53
2018-11-05T00:20:18.290Z,9.63
2018-11-05T00:22:45.514Z,10.27
2018-11-05T00:25:13.312Z,9.60
2018-11-05T00:27:40.951Z,8.97
2018-11-05T00:30:08.910Z,10.40
2018-11-05T00:32:36.094Z,9.90
2018-11-05T00:35:03.335Z,10.10
2018-11-05T00:37:30.505Z,8.77
2018-11-05T00:39:57.663Z,9.60
2018-11-05T00:42:24.886Z,9.43
2018-11-05T00:44:52.160Z,10.20
2018-11-05T00:47:19.471Z,9.50
2018-11-05T00:49:46.636Z,10.50
2018-11-05T00:52:13.818Z,10.17
2018-11-05T00:54:40.971Z,10.70
2018-11-05T00:57:08.145Z,9.77
2018-11-05T00:59:35.439Z,10.33
2018-11-05T01:02:02.615Z,10.67
2018-11-05T01:04:29.787Z,10.40
2018-11-05T01:06:56.947Z,10.20
2018-11-05T01:09:24.145Z,10.53
2018-11-05T01:11:51.322Z,10.90
2018-11-05T01:14:18.579Z,10.37
2018-11-05T01:16:45.774Z,10.50
2018-11-05T01:19:13.037Z,10.67
2018-11-05T01:21:40.198Z,10.70
2018-11-05T01:24:07.388Z,10.63
2018-11-05T01:26:34.559Z,10.60
2018-11-05T01:29:01.749Z,11.17
2018-11-05T01:31:29.003Z,11.40
2018-11-05T01:33:56.251Z,11.83
2018-11-05T01:36:23.459Z,11.53
2018-11-05T01:38:50.681Z,11.73
2018-11-05T01:41:17.869Z,11.00
2018-11-05T01:43:45.039Z,10.90
2018-11-05T01:46:12.219Z,11.97
2018-11-05T01:48:39.388Z,14.60
2018-11-05T01:51:06.550Z,12.00
2018-11-05T01:53:33.762Z,13.47
2018-11-05T01:56:00.949Z,11.47
2018-11-05T01:58:28.121Z,11.83
2018-11-05T02:00:55.355Z,12.30
2018-11-05T02:03:22.547Z,11.40
2018-11-05T02:05:49.703Z,11.47
2018-11-05T02:08:16.862Z,21.33
2018-11-05T02:10:44.027Z,13.50
2018-11-05T02:13:11.224Z,12.60
2018-11-05T02:15:38.346Z,11.77
2018-11-05T02:18:05.637Z,11.90
2018-11-05T02:20:32.815Z,21.30
2018-11-05T02:22:59.994Z,32.90
2018-11-05T02:25:27.212Z,22.73
2018-11-05T02:27:54.434Z,22.20
2018-11-05T02:30:21.602Z,19.13
2018-11-05T02:32:48.783Z,11.07
2018-11-05T02:35:16.751Z,10.60
2018-11-05T02:37:44.548Z,11.10
2018-11-05T02:40:13.202Z,11.30
2018-11-05T02:42:41.072Z,10.10
2018-11-05T02:45:09.558Z,9.97
2018-11-05T02:47:37.113Z,10.60
2018-11-05T02:50:04.597Z,9.90
2018-11-05T02:52:31.733Z,9.20
2018-11-05T02:54:58.919Z,9.70
2018-11-05T02:57:26.099Z,9.93
2018-11-05T02:59:53.274Z,9.47
2018-11-05T03:02:20.493Z,9.93
2018-11-05T03:04:47.661Z,10.43
2018-11-05T03:07:14.817Z,15.53
2018-11-05T03:09:42.038Z,16.30
2018-11-05T03:12:09.193Z,14.20
2018-11-05T03:14:36.400Z,10.17
2018-11-05T03:17:03.605Z,10.20
2018-11-05T03:19:30.776Z,10.23
2018-11-05T03:21:57.991Z,10.00
2018-11-05T03:24:25.142Z,9.40
2018-11-05T03:26:52.350Z,9.60
2018-11-05T03:29:19.515Z,9.57
2018-11-05T03:31:46.688Z,9.80
2018-11-05T03:34:13.940Z,10.13
2018-11-05T03:36:41.081Z,9.20
2018-11-05T03:39:09.533Z,9.83
2018-11-05T03:41:36.751Z,9.40
2018-11-05T03:44:03.928Z,9.70
2018-11-05T03:46:31.098Z,9.73
2018-11-05T03:48:58.316Z,9.67
2018-11-05T03:51:25.477Z,10.73
2018-11-05T03:53:52.630Z,9.70
2018-11-05T03:56:19.929Z,9.63
2018-11-05T03:58:46.997Z,10.23
2018-11-05T04:01:14.158Z,9.90
2018-11-05T04:03:41.318Z,10.07
2018-11-05T04:06:08.498Z,9.90
2018-11-05T04:08:35.684Z,10.90
2018-11-05T04:11:02.913Z,10.00
2018-11-05T04:13:30.080Z,10.40
2018-11-05T04:15:57.400Z,10.37
2018-11-05T04:18:24.438Z,10.30
2018-11-05T04:20:51.654Z,10.10
2018-11-05T04:23:18.800Z,9.77
2018-11-05T04:25:45.956Z,10.20
2018-11-05T04:28:13.127Z,10.47
2018-11-05T04:30:40.275Z,9.80
2018-11-05T04:33:07.433Z,10.40
2018-11-05T04:35:34.614Z,10.23
2018-11-05T04:38:01.879Z,10.80
2018-11-05T04:40:29.036Z,10.17
2018-11-05T04:42:56.182Z,11.03
2018-11-05T04:45:23.361Z,11.57
2018-11-05T04:47:50.535Z,10.60
2018-11-05T04:50:17.722Z,10.60
2018-11-05T04:52:44.945Z,10.30
2018-11-05T04:55:12.124Z,10.40
2018-11-05T04:57:39.328Z,10.60
2018-11-05T05:00:09.398Z,10.00
2018-11-05T05:02:36.550Z,11.03
2018-11-05T05:05:03.776Z,11.13
2018-11-05T05:07:30.927Z,11.20
2018-11-05T05:09:58.210Z,11.00
2018-11-05T05:12:25.406Z,10.37
2018-11-05T05:14:52.577Z,11.40
2018-11-05T05:17:19.742Z,11.23
2018-11-05T05:19:46.935Z,11.13
2018-11-05T05:22:14.145Z,11.00
2018-11-05T05:24:41.323Z,10.30
2018-11-05T05:27:08.479Z,11.10
2018-11-05T05:29:35.663Z,10.60
2018-11-05T05:32:02.821Z,10.83
2018-11-05T05:34:36.746Z,10.70
2018-11-05T05:37:04.027Z,10.63
2018-11-05T05:39:31.177Z,11.23
2018-11-05T05:41:58.393Z,10.77
2018-11-05T05:44:25.573Z,11.27
2018-11-05T05:46:52.771Z,11.63
2018-11-05T05:49:19.974Z,11.60
2018-11-05T05:51:47.166Z,11.10
2018-11-05T05:54:14.350Z,11.93
2018-11-05T05:56:41.513Z,11.60
2018-11-05T05:59:08.670Z,11.00
2018-11-05T06:01:35.897Z,10.90
2018-11-05T06:04:03.259Z,11.23
2018-11-05T06:06:30.535Z,11.37
2018-11-05T06:08:57.642Z,11.53
2018-11-05T06:11:24.829Z,11.17
2018-11-05T06:13:52.010Z,11.40
2018-11-05T06:16:19.190Z,11.20
2018-11-05T06:18:46.366Z,11.00
2018-11-05T06:21:13.546Z,11.07
2018-11-05T06:23:40.759Z,11.47
2018-11-05T06:26:07.930Z,11.43
2018-11-05T06:28:35.195Z,11.00
2018-11-05T06:31:02.304Z,11.30
2018-11-05T06:33:29.515Z,11.93
2018-11-05T06:35:56.693Z,11.30
2018-11-05T06:38:23.894Z,11.37
2018-11-05T06:40:51.094Z,11.37
2018-11-05T06:43:18.278Z,11.10
2018-11-05T06:45:45.459Z,11.53
2018-11-05T06:48:12.656Z,11.30
2018-11-05T06:50:39.838Z,11.70
2018-11-05T06:53:07.001Z,11.53
2018-11-05T06:55:34.175Z,11.33
2018-11-05T06:58:01.353Z,10.80
2018-11-05T07:00:28.543Z,11.47
2018-11-05T07:02:55.742Z,11.53
2018-11-05T07:05:22.909Z,12.50
2018-11-05T07:07:50.076Z,13.83
2018-11-05T07:10:17.836Z,13.77
2018-11-05T07:12:45.387Z,12.50
2018-11-05T07:15:16.533Z,12.00
2018-11-05T07:17:44.798Z,18.00
2018-11-05T07:20:18.305Z,14.20
2018-11-05T07:22:46.264Z,13.90
2018-11-05T07:25:14.342Z,12.10
2018-11-05T07:27:41.728Z,11.63
2018-11-05T07:30:10.639Z,11.57
2018-11-05T07:32:37.820Z,11.10
2018-11-05T07:35:05.661Z,13.70
2018-11-05T07:37:32.840Z,12.87
2018-11-05T07:40:00.061Z,12.30
2018-11-05T07:42:27.223Z,11.90
2018-11-05T07:44:54.418Z,12.13
2018-11-05T07:47:21.617Z,12.30
2018-11-05T07:49:48.771Z,12.07
2018-11-05T07:52:22.350Z,11.73
2018-11-05T07:54:49.522Z,12.00
2018-11-05T07:57:16.709Z,12.87
2018-11-05T07:59:43.898Z,12.10
2018-11-05T08:02:11.071Z,12.80
2018-11-05T08:04:38.222Z,10.67
2018-11-05T08:07:05.410Z,12.17
2018-11-05T08:09:32.658Z,13.00
2018-11-05T08:11:59.923Z,12.17
2018-11-05T08:14:27.183Z,13.10
2018-11-05T08:16:54.331Z,12.57
2018-11-05T08:19:21.490Z,12.00
2018-11-05T08:21:48.723Z,12.30
2018-11-05T08:24:15.915Z,12.27
2018-11-05T08:26:43.088Z,13.30
2018-11-05T08:29:10.263Z,12.17
2018-11-05T08:31:37.442Z,13.00
2018-11-05T08:34:04.638Z,13.10
2018-11-05T08:36:31.846Z,12.70
2018-11-05T08:38:58.994Z,12.57
2018-11-05T08:41:26.164Z,12.40
2018-11-05T08:43:55.422Z,13.27
2018-11-05T08:46:22.605Z,13.27
2018-11-05T08:48:49.818Z,13.77
2018-11-05T08:51:17.251Z,13.47
2018-11-05T08:53:44.167Z,12.53
2018-11-05T08:56:11.386Z,13.30
2018-11-05T08:58:38.628Z,13.23
2018-11-05T09:01:11.401Z,12.90
2018-11-05T09:03:38.506Z,13.37
2018-11-05T09:06:06.066Z,13.13
2018-11-05T09:08:33.275Z,12.40
2018-11-05T09:11:00.863Z,12.43
2018-11-05T09:13:27.685Z,13.60
2018-11-05T09:15:54.865Z,12.67
2018-11-05T09:18:22.037Z,13.70
2018-11-05T09:20:49.242Z,13.40
2018-11-05T09:23:16.407Z,12.13
2018-11-05T09:25:43.571Z,12.90
2018-11-05T09:28:10.760Z,13.27
2018-11-05T09:30:37.924Z,12.23
2018-11-05T09:33:05.104Z,12.40
2018-11-05T09:35:32.333Z,12.93
2018-11-05T09:37:59.493Z,12.80
2018-11-05T09:40:26.671Z,13.33
2018-11-05T09:42:54.198Z,13.27
2018-11-05T09:45:23.633Z,13.20
2018-11-05T09:47:50.777Z,13.30
2018-11-05T09:50:18.680Z,14.00
2018-11-05T09:52:45.829Z,13.83
2018-11-05T09:55:13.658Z,13.43
2018-11-05T09:57:41.300Z,14.63
2018-11-05T10:00:10.204Z,13.20
2018-11-05T10:02:42.906Z,14.47
2018-11-05T10:05:10.289Z,15.57
2018-11-05T10:07:37.415Z,15.30
2018-11-05T10:10:05.365Z,14.37
2018-11-05T10:12:32.538Z,14.70
2018-11-05T10:14:59.752Z,14.90
2018-11-05T10:17:26.916Z,14.50
2018-11-05T10:19:54.079Z,14.33
2018-11-05T10:22:21.254Z,14.57
2018-11-05T10:24:48.628Z,17.83
2018-11-05T10:27:15.718Z,15.33
2018-11-05T10:29:42.882Z,14.20
2018-11-05T10:32:10.070Z,15.20
2018-11-05T10:34:37.260Z,16.30
2018-11-05T10:37:04.504Z,19.30
2018-11-05T10:39:31.707Z,19.23
2018-11-05T10:41:58.888Z,16.20
2018-11-05T10:44:26.064Z,17.17
2018-11-05T10:46:53.235Z,18.83
2018-11-05T10:49:20.405Z,15.00
2018-11-05T10:51:47.604Z,15.60
2018-11-05T10:54:14.878Z,13.77
2018-11-05T10:56:42.058Z,14.20
2018-11-05T10:59:09.246Z,15.10
2018-11-05T11:01:41.850Z,18.30
2018-11-05T11:04:14.525Z,15.50
2018-11-05T11:06:41.667Z,15.30
2018-11-05T11:09:08.879Z,13.47
2018-11-05T11:11:36.224Z,14.00
2018-11-05T11:14:03.519Z,14.30
2018-11-05T11:16:30.680Z,14.97
2018-11-05T11:18:57.907Z,13.40
2018-11-05T11:21:25.087Z,14.97
2018-11-05T11:23:52.366Z,14.70
2018-11-05T11:26:19.529Z,14.57
2018-11-05T11:28:46.801Z,13.50
2018-11-05T11:31:13.891Z,13.27
2018-11-05T11:33:41.063Z,13.33
2018-11-05T11:36:08.234Z,13.60
2018-11-05T11:38:35.438Z,14.73
2018-11-05T11:41:02.634Z,14.63
2018-11-05T11:43:29.796Z,14.33
2018-11-05T11:45:56.980Z,13.83
2018-11-05T11:48:24.126Z,14.43
2018-11-05T11:50:51.298Z,13.20
2018-11-05T11:53:18.555Z,13.70
2018-11-05T11:55:45.708Z,14.00
2018-11-05T11:58:12.850Z,14.30
2018-11-05T12:00:40.022Z,13.70
2018-11-05T12:03:07.198Z,13.93
2018-11-05T12:05:34.429Z,14.73
2018-11-05T12:08:01.604Z,13.97
2018-11-05T12:10:28.775Z,14.20
2018-11-05T12:12:55.933Z,14.13
2018-11-05T12:15:23.614Z,13.53
2018-11-05T12:17:51.690Z,13.10
2018-11-05T12:20:20.211Z,14.00
2018-11-05T12:22:47.923Z,14.90
2018-11-05T12:25:20.569Z,14.40
2018-11-05T12:27:47.730Z,14.33
2018-11-05T12:30:21.890Z,14.40
2018-11-05T12:33:00.342Z,13.60
2018-11-05T12:40:49.630Z,13.73
2018-11-05T12:43:16.807Z,13.30
2018-11-05T12:45:49.479Z,14.40
2018-11-05T12:48:22.142Z,14.40
2018-11-05T12:53:33.528Z,14.50
2018-11-05T12:56:00.687Z,14.50
2018-11-05T13:03:44.589Z,14.37
2018-11-05T13:06:22.933Z,14.70
2018-11-05T13:08:55.669Z,15.00
2018-11-05T13:11:28.996Z,13.23
2018-11-05T13:27:02.084Z,14.53
2018-11-05T13:29:29.267Z,14.33
2018-11-05T13:34:40.254Z,15.03
2018-11-05T13:37:13.381Z,13.30
2018-11-05T13:42:24.003Z,14.50
2018-11-05T13:44:57.042Z,15.10
2018-11-05T13:47:30.000Z,14.90
2018-11-05T13:50:02.546Z,14.83
2018-11-05T13:52:35.217Z,14.30
2018-11-05T13:55:07.637Z,13.90
2018-11-05T13:57:40.903Z,14.53
2018-11-05T14:05:26.325Z,14.17
2018-11-05T14:10:26.175Z,15.03
2018-11-05T14:12:58.926Z,15.67
2018-11-05T14:18:04.452Z,15.70
2018-11-05T14:20:37.157Z,15.30
2018-11-05T14:23:04.691Z,14.70
2018-11-05T14:25:31.934Z,15.50
2018-11-05T14:27:59.189Z,15.43
2018-11-05T14:30:31.731Z,14.93
2018-11-05T14:33:04.667Z,15.70
2018-11-05T14:38:04.692Z,16.13
2018-11-05T14:43:15.790Z,16.40
2018-11-05T14:45:48.273Z,16.13
2018-11-05T14:48:21.099Z,16.60
2018-11-05T14:50:48.328Z,14.67
2018-11-05T14:53:20.851Z,15.73
2018-11-05T14:55:53.409Z,15.60
2018-11-05T15:03:37.166Z,16.23
2018-11-05T15:06:04.368Z,15.43
2018-11-05T15:08:31.518Z,15.40
2018-11-05T15:10:58.704Z,15.00
2018-11-05T15:13:25.878Z,15.70
2018-11-05T15:15:53.088Z,14.90
2018-11-05T15:18:20.417Z,15.53
2018-11-05T15:20:47.629Z,16.30
2018-11-05T15:23:14.852Z,16.73
2018-11-05T15:25:42.391Z,16.10
2018-11-05T15:28:09.479Z,15.40
2018-11-05T15:30:36.679Z,16.10
2018-11-05T15:33:03.939Z,17.23
2018-11-05T15:35:31.122Z,16.47
2018-11-05T15:37:58.411Z,15.67
2018-11-05T15:40:25.584Z,15.23
2018-11-05T15:45:26.420Z,16.80
2018-11-05T15:47:53.682Z,16.70
2018-11-05T15:50:21.555Z,16.70
2018-11-05T15:52:49.155Z,16.60
2018-11-05T15:55:16.173Z,15.63
2018-11-05T15:57:43.403Z,16.17
2018-11-05T16:00:18.954Z,16.27
2018-11-05T16:02:47.974Z,16.20
2018-11-05T16:05:15.250Z,16.63
2018-11-05T16:07:42.504Z,16.13
2018-11-05T16:10:09.782Z,16.50
2018-11-05T16:12:37.283Z,16.50
2018-11-05T16:15:04.936Z,16.27
2018-11-05T16:17:32.146Z,15.67
2018-11-05T16:20:00.213Z,15.87
2018-11-05T16:22:27.446Z,16.53
2018-11-05T16:24:54.672Z,16.93
2018-11-05T16:27:21.896Z,17.37
2018-11-05T16:29:49.125Z,17.80
2018-11-05T16:32:16.423Z,17.47
2018-11-05T16:34:43.707Z,17.60
2018-11-05T16:37:10.916Z,16.87
2018-11-05T16:39:38.209Z,16.33
2018-11-05T16:42:05.616Z,16.23
2018-11-05T16:44:32.919Z,17.03
2018-11-05T16:47:00.233Z,18.60
2018-11-05T16:49:27.482Z,19.17
2018-11-05T16:51:54.689Z,17.60
2018-11-05T16:54:21.902Z,17.07
2018-11-05T16:56:49.123Z,16.47
2018-11-05T16:59:16.382Z,15.93
2018-11-05T17:01:44.089Z,15.60
2018-11-05T17:04:10.882Z,15.40
2018-11-05T17:06:38.093Z,15.40
2018-11-05T17:09:06.877Z,14.73
2018-11-05T17:11:34.111Z,15.40
2018-11-05T17:14:01.424Z,14.30
2018-11-05T17:16:28.619Z,14.70
2018-11-05T17:18:55.920Z,14.70
2018-11-05T17:21:23.099Z,15.57
2018-11-05T17:23:50.328Z,15.07
2018-11-05T17:26:17.710Z,14.77
2018-11-05T17:28:44.897Z,14.60
2018-11-05T17:31:12.159Z,15.10
2018-11-05T17:33:39.479Z,15.27
2018-11-05T17:36:06.696Z,14.40
2018-11-05T17:38:33.867Z,14.40
2018-11-05T17:41:01.287Z,14.47
2018-11-05T17:43:28.467Z,14.07
2018-11-05T17:45:55.718Z,15.47
2018-11-05T17:48:22.978Z,15.93
2018-11-05T17:50:50.276Z,16.60
2018-11-05T17:53:17.372Z,17.40
2018-11-05T17:55:44.606Z,15.80
2018-11-05T17:58:11.834Z,17.70
2018-11-05T18:00:39.110Z,16.33
2018-11-05T18:03:06.368Z,17.43
2018-11-05T18:05:33.545Z,16.00
2018-11-05T18:08:00.967Z,21.60
2018-11-05T18:10:28.131Z,21.47
2018-11-05T18:12:55.327Z,20.33
2018-11-05T18:15:22.498Z,18.87
2018-11-05T18:17:49.693Z,19.47
2018-11-05T18:20:17.562Z,18.10
2018-11-05T18:22:44.831Z,17.93
2018-11-05T18:25:13.596Z,17.73
2018-11-05T18:27:41.007Z,17.70
2018-11-05T18:30:08.790Z,16.67
2018-11-05T18:32:36.146Z,16.67
2018-11-05T18:35:03.493Z,16.93
2018-11-05T18:37:30.834Z,17.00
2018-11-05T18:39:58.049Z,18.70
2018-11-05T18:42:25.266Z,20.40
2018-11-05T18:44:52.450Z,18.00
2018-11-05T18:47:19.647Z,17.50
2018-11-05T18:49:47.070Z,18.30
2018-11-05T18:52:14.057Z,17.80
2018-11-05T18:54:41.387Z,17.23
2018-11-05T18:57:08.978Z,17.10
2018-11-05T18:59:36.170Z,17.00
2018-11-05T19:02:03.800Z,16.23
2018-11-05T19:04:30.998Z,15.80
2018-11-05T19:06:58.238Z,16.63
2018-11-05T19:09:26.490Z,17.00
2018-11-05T19:11:53.775Z,16.60
2018-11-05T19:14:20.966Z,17.07
2018-11-05T19:16:48.203Z,17.90
2018-11-05T19:19:15.365Z,16.90
2018-11-05T19:21:42.592Z,17.00
2018-11-05T19:24:10.029Z,16.63
2018-11-05T19:26:37.102Z,16.87
2018-11-05T19:29:04.866Z,17.00
2018-11-05T19:31:32.047Z,16.87
2018-11-05T19:33:59.454Z,17.57
2018-11-05T19:36:26.575Z,18.53
2018-11-05T19:38:53.806Z,18.43
2018-11-05T19:41:20.993Z,17.93
2018-11-05T19:43:48.211Z,17.33
2018-11-05T19:46:15.411Z,17.60
2018-11-05T19:48:42.641Z,18.73
2018-11-05T19:51:10.439Z,19.17
2018-11-05T19:53:37.700Z,18.23
2018-11-05T19:56:05.655Z,18.43
2018-11-05T19:58:32.813Z,18.70
2018-11-05T20:01:00.015Z,18.57
2018-11-05T20:03:27.242Z,19.00
2018-11-05T20:05:54.579Z,18.13
2018-11-05T20:08:21.755Z,19.10
2018-11-05T20:10:48.919Z,18.53
2018-11-05T20:13:16.096Z,18.67
2018-11-05T20:15:43.337Z,18.63
2018-11-05T20:18:10.455Z,18.90
2018-11-05T20:20:37.874Z,16.93
2018-11-05T20:23:05.143Z,17.87
2018-11-05T20:25:32.242Z,18.33
2018-11-05T20:27:59.826Z,18.73
2018-11-05T20:30:27.770Z,18.97
2018-11-05T20:32:56.123Z,19.07
2018-11-05T20:35:23.075Z,19.50
2018-11-05T20:37:50.274Z,19.83
2018-11-05T20:40:18.551Z,20.90
2018-11-05T20:42:46.758Z,20.50
2018-11-05T20:45:14.567Z,21.23
2018-11-05T20:47:41.993Z,21.93
2018-11-05T20:50:09.858Z,19.33
2018-11-05T20:52:37.222Z,20.50
2018-11-05T20:55:04.889Z,20.20
2018-11-05T20:57:32.094Z,20.00
2018-11-05T20:59:59.375Z,19.83
2018-11-05T21:02:26.554Z,20.10
2018-11-05T21:04:53.798Z,19.77
2018-11-05T21:07:21.032Z,20.00
2018-11-05T21:09:48.203Z,21.27
2018-11-05T21:12:15.379Z,25.40
2018-11-05T21:14:42.556Z,26.23
2018-11-05T21:17:09.775Z,21.87
2018-11-05T21:19:37.003Z,19.80
2018-11-05T21:22:04.224Z,19.73
2018-11-05T21:24:31.311Z,19.37
2018-11-05T21:26:58.580Z,18.70
2018-11-05T21:29:26.058Z,18.93
2018-11-05T21:31:53.279Z,19.47
2018-11-05T21:34:20.511Z,19.87
2018-11-05T21:36:47.671Z,19.37
2018-11-05T21:39:14.854Z,19.00
2018-11-05T21:41:42.055Z,18.07
2018-11-05T21:44:09.453Z,18.90
2018-11-05T21:46:36.745Z,19.93
2018-11-05T21:49:03.958Z,18.40
2018-11-05T21:51:31.196Z,19.40
2018-11-05T21:53:58.433Z,19.50
2018-11-05T21:56:25.976Z,17.77
2018-11-05T21:58:53.494Z,18.70
2018-11-05T22:01:20.718Z,18.10
2018-11-05T22:03:47.874Z,17.77
2018-11-05T22:06:15.059Z,17.90
2018-11-05T22:08:42.233Z,18.30
2018-11-05T22:11:09.407Z,18.80
2018-11-05T22:13:36.572Z,20.10
2018-11-05T22:16:03.766Z,18.50
2018-11-05T22:33:43.684Z,18.77
2018-11-05T22:36:10.842Z,17.93
2018-11-05T22:38:38.165Z,17.80
2018-11-05T22:41:05.743Z,17.80
2018-11-05T22:43:32.930Z,18.07
2018-11-05T22:46:00.208Z,17.97
2018-11-05T22:48:27.447Z,18.40
2018-11-05T22:50:54.709Z,17.63
2018-11-05T22:53:21.886Z,18.07
2018-11-05T22:55:49.115Z,18.50
2018-11-05T22:58:16.313Z,18.73
2018-11-05T23:00:49.033Z,19.10
2018-11-05T23:03:21.624Z,18.03
2018-11-05T23:05:48.843Z,18.30
2018-11-05T23:08:16.015Z,18.07
2018-11-05T23:10:43.205Z,17.27
2018-11-05T23:13:10.391Z,18.17
2018-11-05T23:15:37.530Z,17.97
2018-11-05T23:18:05.114Z,18.27
2018-11-05T23:20:32.260Z,18.73
2018-11-05T23:22:59.443Z,17.47
2018-11-05T23:25:26.765Z,17.90
2018-11-05T23:27:53.990Z,17.00
2018-11-05T23:30:21.261Z,19.10
2018-11-05T23:32:48.435Z,18.00
2018-11-05T23:35:15.599Z,18.20
2018-11-05T23:37:42.767Z,18.37
2018-11-05T23:40:09.976Z,16.97
2018-11-05T23:42:37.979Z,17.30
2018-11-05T23:45:06.119Z,17.33
2018-11-05T23:47:33.287Z,17.20
2018-11-05T23:50:00.445Z,17.00
2018-11-05T23:52:27.604Z,16.20
2018-11-05T23:54:54.838Z,17.03
2018-11-05T23:57:22.751Z,17.10
2018-11-05T23:59:49.928Z,17.63
